Latest Weather Observations for Legendre Island

IDW60801

Issued at 4:32 pm WST Saturday 13 February 2016 (issued every 30 minutes, with the page automatically refreshed every 10 minutes)

About weather observations | Map of weather stations | Latest weather observations for WA | Other Formats
Station Details ID: 004095 Name: LEGENDRE ISLAND Lat: -20.36 Lon: 116.84 Height: 29.0 m
Data from the previous 72 hours. | See also: Recent months at Legendre Island
Date/Time
WST
Temp
°C
App
Temp
°C
Dew
Point
Rel
Hum
%
Delta-T
°C
Wind Press
QNH
hPa
Press
MSL
hPa
Rain
since 9 am
mm
Dir
 
Spd
km/h
Gust
km/h
Spd
kts
Gust
kts
13/04:30pm 30.8 32.4 26.3 77 3.2 NW 30 37 16 20 1006.7 1006.5 -
13/04:00pm 31.1 33.1 26.4 76 3.4 NW 28 37 15 20 1006.6 1006.4 -
13/03:30pm 31.3 33.1 26.6 76 3.4 NW 30 35 16 19 1006.9 1006.7 -
13/03:00pm 31.7 33.7 26.9 76 3.5 NW 30 35 16 19 1007.2 1007.0 -
13/02:30pm 32.4 34.3 26.7 72 4.1 NW 30 35 16 19 1007.3 1007.1 -
13/02:00pm 31.5 33.6 26.5 75 3.6 NW 28 33 15 18 1007.6 1007.4 -
13/01:30pm 32.2 35.4 27.0 74 3.8 NW 24 30 13 16 1007.6 1007.4 -
13/01:00pm 31.7 34.8 26.9 76 3.5 NNW 24 30 13 16 1007.9 1007.7 -
13/12:30pm 32.6 37.0 27.6 75 3.6 NW 20 26 11 14 1008.1 1007.9 -
13/12:00pm 31.8 35.6 27.3 77 3.3 NW 22 28 12 15 1008.3 1008.1 -
13/11:30am 31.8 36.1 27.5 78 3.1 NW 20 24 11 13 1008.9 1008.7 -
13/11:00am 31.8 36.1 27.5 78 3.1 WNW 20 24 11 13 1008.7 1008.5 -
13/10:30am 31.1 35.2 27.2 80 2.8 WNW 20 24 11 13 1008.7 1008.5 -
13/10:00am 31.8 37.3 28.3 82 2.6 WNW 17 22 9 12 1008.8 1008.6 -
13/09:30am 30.9 37.2 29.4 92 1.1 NW 17 22 9 12 1008.9 1008.7 -
13/09:00am 30.1 37.7 30.1 100 0.0 NW 13 19 7 10 1009.1 1008.9 -
13/08:30am 29.0 35.4 29.0 100 0.0 N 15 22 8 12 1009.2 1009.0 -
13/08:00am 29.2 35.3 29.2 100 0.0 WNW 17 22 9 12 1008.3 1008.1 -
13/07:30am 28.4 34.3 28.4 100 0.0 W 15 19 8 10 1008.3 1008.1 -
13/07:00am 28.1 32.5 28.1 100 0.0 WSW 22 26 12 14 1008.0 1007.8 -
13/06:30am 27.8 32.5 27.8 100 0.0 W 19 22 10 12 1007.7 1007.5 -
13/06:00am 27.5 32.0 27.5 100 0.0 W 19 20 10 11 1007.3 1007.1 -
13/05:30am 27.4 31.8 27.4 100 0.0 WSW 19 22 10 12 1007.1 1006.9 -
13/05:00am 27.4 32.2 27.4 100 0.0 W 17 20 9 11 1007.0 1006.8 -
13/04:30am 27.5 32.8 27.5 100 0.0 W 15 17 8 9 1007.2 1007.0 -
13/04:00am 27.6 32.6 27.6 100 0.0 W 17 17 9 9 1006.8 1006.6 -
13/03:30am 27.6 32.6 27.6 100 0.0 W 17 20 9 11 1006.8 1006.6 -
13/03:00am 27.6 32.2 27.6 100 0.0 WSW 19 20 10 11 1006.8 1006.6 -
13/02:30am 27.6 31.6 27.6 100 0.0 WSW 22 26 12 14 1006.9 1006.7 -
13/02:00am 27.3 31.7 27.3 100 0.0 W 19 20 10 11 1007.1 1006.9 -
13/01:30am 27.7 32.7 27.7 100 0.0 W 17 19 9 10 1007.2 1007.0 -
13/01:00am 27.8 33.3 27.8 100 0.0 WNW 15 15 8 8 1007.5 1007.3 -
13/12:30am 27.9 34.2 27.9 100 0.0 WNW 11 13 6 7 1008.0 1007.8 -
13/12:00am 28.1 33.4 28.1 100 0.0 WSW 17 20 9 11 1008.3 1008.1 -
 
Date/Time
WST
Temp
°C
App
Temp
°C
Dew
Point
Rel
Hum
%
Delta-T
°C
Wind Press
QNH
hPa
Press
MSL
hPa
Rain
since 9 am
mm
Dir
 
Spd
km/h
Gust
km/h
Spd
kts
Gust
kts
12/11:30pm 28.1 32.5 28.1 100 0.0 WSW 22 26 12 14 1008.2 1008.0 -
12/11:00pm 28.3 32.1 28.3 100 0.0 WSW 26 30 14 16 1008.0 1007.8 -
12/10:30pm 28.3 32.4 28.3 100 0.0 WSW 24 30 13 16 1007.9 1007.7 -
12/10:00pm 28.3 32.8 28.3 100 0.0 WSW 22 26 12 14 1007.7 1007.5 -
12/09:30pm 28.4 33.4 28.4 100 0.0 WSW 20 22 11 12 1007.4 1007.2 -
12/09:00pm 28.4 33.4 28.4 100 0.0 WSW 20 24 11 13 1007.3 1007.1 -
12/08:30pm 28.5 33.5 28.5 100 0.0 WSW 20 24 11 13 1007.1 1006.9 -
12/08:00pm 28.7 33.9 28.7 100 0.0 WSW 20 24 11 13 1006.8 1006.6 -
12/07:30pm 28.9 34.2 28.9 100 0.0 WSW 20 24 11 13 1006.5 1006.3 -
12/07:00pm 29.3 34.6 29.3 100 0.0 WSW 22 26 12 14 1006.2 1006.0 -
12/06:30pm 30.0 35.7 29.3 96 0.5 WSW 20 26 11 14 1005.8 1005.6 -
12/06:00pm 30.7 36.2 29.1 91 1.2 W 20 24 11 13 1005.5 1005.3 -
12/05:30pm 31.7 36.9 28.7 84 2.2 W 20 24 11 13 1005.3 1005.1 -
12/05:00pm 32.1 37.1 28.4 81 2.7 WNW 20 28 11 15 1005.2 1005.0 -
12/04:30pm 32.2 37.0 28.1 79 3.0 WNW 20 26 11 14 1005.0 1004.8 -
12/04:00pm 32.1 35.9 27.3 76 3.5 NW 22 28 12 15 1005.0 1004.8 -
12/03:30pm 33.0 37.4 28.2 76 3.5 NW 22 28 12 15 1005.2 1005.0 -
12/03:00pm 32.5 36.1 27.0 73 4.0 NW 22 26 12 14 1005.6 1005.4 -
12/02:30pm 34.3 37.5 26.5 64 5.6 WNW 22 24 12 13 1005.8 1005.6 -
12/02:00pm 35.5 39.7 27.1 62 6.1 WNW 19 22 10 12 1006.2 1006.0 -
12/01:30pm 35.3 38.5 24.9 55 7.4 NNW 17 22 9 12 1006.7 1006.5 -
12/01:00pm 36.0 39.9 24.3 51 8.3 N 11 19 6 10 1006.8 1006.6 -
12/12:30pm 39.0 38.2 9.5 17 17.2 ENE 4 6 2 3 1007.0 1006.8 -
12/12:00pm 38.9 38.7 11.9 20 16.4 NE 4 6 2 3 1007.3 1007.1 -
12/11:30am 38.7 39.1 13.8 22 15.5 NE 4 7 2 4 1007.5 1007.3 -
12/11:00am 36.6 40.4 21.6 41 10.3 NNE 4 9 2 5 1007.7 1007.5 -
12/10:30am 37.6 39.7 19.0 33 12.3 ENE 6 13 3 7 1007.9 1007.7 -
12/10:00am 35.1 38.2 20.2 41 10.0 ESE 4 7 2 4 1008.2 1008.0 -
12/09:30am 31.8 37.9 25.6 69 4.4 NNE 4 6 2 3 1008.3 1008.1 -
12/09:00am 32.4 38.9 26.2 70 4.4 NE 4 7 2 4 1008.4 1008.2 -
12/08:30am 33.0 40.6 27.3 72 4.1 ENE 2 7 1 4 1008.4 1008.2 -
12/08:00am 32.6 40.6 28.9 81 2.7 SSW 6 9 3 5 1008.2 1008.0 -
12/07:30am 30.4 38.7 30.0 98 0.3 SW 9 9 5 5 1008.1 1007.9 -
12/07:00am 29.6 38.5 29.6 100 0.0 W 4 9 2 5 1008.0 1007.8 -
12/06:30am 28.7 35.2 28.2 97 0.4 SW 11 11 6 6 1007.7 1007.5 -
12/06:00am 28.8 37.1 28.8 100 0.0 N 4 6 2 3 1007.7 1007.5 -
12/05:30am 28.1 34.2 28.1 100 0.0 S 13 15 7 8 1007.4 1007.2 -
12/05:00am 28.3 33.8 28.3 100 0.0 SSW 17 19 9 10 1007.2 1007.0 -
12/04:30am 28.6 34.7 28.6 100 0.0 SSW 15 20 8 11 1007.1 1006.9 -
12/04:00am 28.4 33.4 28.4 100 0.0 SSW 20 22 11 12 1006.7 1006.5 -
12/03:30am 28.5 34.5 28.5 100 0.0 SSW 15 19 8 10 1006.8 1006.6 -
12/03:00am 28.4 33.6 28.4 100 0.0 SW 19 20 10 11 1006.6 1006.4 -
12/02:30am 28.3 33.8 28.3 100 0.0 SW 17 19 9 10 1006.8 1006.6 -
12/02:00am 28.8 34.3 28.8 100 0.0 SSW 19 20 10 11 1006.9 1006.7 -
12/01:30am 28.5 33.7 28.5 100 0.0 SW 19 20 10 11 1007.1 1006.9 -
12/01:00am 28.1 33.0 28.1 100 0.0 SSW 19 20 10 11 1007.4 1007.2 -
12/12:30am 28.3 33.2 28.3 100 0.0 SW 20 22 11 12 1007.7 1007.5 -
12/12:00am 28.1 33.0 28.1 100 0.0 SW 19 20 10 11 1007.9 1007.7 -
 
Date/Time
WST
Temp
°C
App
Temp
°C
Dew
Point
Rel
Hum
%
Delta-T
°C
Wind Press
QNH
hPa
Press
MSL
hPa
Rain
since 9 am
mm
Dir
 
Spd
km/h
Gust
km/h
Spd
kts
Gust
kts
11/11:30pm 28.3 33.4 28.3 100 0.0 SW 19 20 10 11 1008.2 1008.0 -
11/11:00pm 28.6 33.7 28.6 100 0.0 SW 20 22 11 12 1008.2 1008.0 -
11/10:30pm 28.7 33.9 28.7 100 0.0 SW 20 20 11 11 1008.4 1008.2 -
11/10:00pm 29.0 34.6 29.0 100 0.0 SW 19 20 10 11 1008.3 1008.1 -
11/09:30pm 28.9 34.8 28.9 100 0.0 SW 17 19 9 10 1008.1 1007.9 -
11/09:00pm 28.8 34.3 28.3 97 0.4 WSW 17 19 9 10 1008.0 1007.8 -
11/08:30pm 29.3 34.5 27.9 92 1.0 SW 17 19 9 10 1007.7 1007.5 -
11/08:00pm 29.6 34.0 26.8 85 2.0 WSW 17 19 9 10 1007.4 1007.2 -
11/07:30pm 29.7 33.8 26.3 82 2.4 WSW 17 20 9 11 1007.1 1006.9 -
11/07:00pm 30.2 33.7 25.5 76 3.3 WSW 17 20 9 11 1006.7 1006.5 -
11/06:30pm 31.5 34.7 25.6 71 4.2 WSW 19 22 10 12 1006.4 1006.2 -
11/06:00pm 32.5 37.1 26.6 71 4.3 WSW 15 24 8 13 1006.1 1005.9 -
11/05:30pm 32.9 36.6 25.7 66 5.1 W 17 20 9 11 1005.8 1005.6 -
11/05:00pm 34.0 36.7 24.8 58 6.5 W 19 22 10 12 1005.5 1005.3 -
11/04:30pm 36.0 38.4 22.9 46 9.1 W 15 17 8 9 1005.4 1005.2 -
11/04:00pm 36.5 38.9 22.3 44 9.8 WNW 13 19 7 10 1005.4 1005.2 -
11/03:30pm 35.3 38.7 23.3 50 8.4 NNW 11 13 6 7 1005.5 1005.3 -
11/03:00pm 37.5 38.0 17.5 30 13.0 NW 11 13 6 7 1005.7 1005.5 -
11/02:30pm 37.0 41.3 24.2 48 9.0 NNW 9 15 5 8 1006.1 1005.9 -
11/02:00pm 38.6 42.3 22.2 39 11.4 NNW 6 15 3 8 1006.5 1006.3 -
11/01:30pm 38.4 41.4 22.0 38 11.3 NNW 9 13 5 7 1006.8 1006.6 -
11/01:00pm 37.8 41.4 23.1 43 10.3 NW 9 13 5 7 1007.1 1006.9 -
11/12:30pm 36.1 41.4 25.3 53 7.7 NNW 7 13 4 7 1007.3 1007.1 -
11/12:00pm 35.3 41.7 26.9 62 6.1 N 7 22 4 12 1007.7 1007.5 -
11/11:30am 36.3 39.4 23.5 47 9.0 WSW 13 17 7 9 1007.5 1007.3 -
11/11:00am 36.7 41.2 24.6 50 8.6 WSW 9 13 5 7 1007.8 1007.6 -
11/10:30am 36.4 41.5 24.9 51 8.2 WSW 7 9 4 5 1008.1 1007.9 -
11/10:00am 38.4 41.2 21.6 38 11.6 S 9 13 5 7 1008.4 1008.2 -
11/09:30am 37.6 40.4 20.8 37 11.4 SSE 7 11 4 6 1008.7 1008.5 -
11/09:00am 35.5 41.3 26.0 58 6.8 S 7 13 4 7 1008.9 1008.7 -
11/08:30am 32.7 42.2 31.0 91 1.3 SSW 7 9 4 5 1009.0 1008.8 -
11/08:00am 31.4 41.8 31.4 100 0.0 SW 4 6 2 3 1008.9 1008.7 -
11/07:30am 29.7 38.7 29.7 100 0.0 SSW 4 6 2 3 1008.7 1008.5 -
11/07:00am 28.8 36.7 28.8 100 0.0 W 6 6 3 3 1008.6 1008.4 -
11/06:30am 28.1 34.6 28.1 100 0.0 SW 11 11 6 6 1008.3 1008.1 -
11/06:00am 27.8 33.7 27.8 100 0.0 SW 13 15 7 8 1008.0 1007.8 -
11/05:30am 27.5 33.5 27.5 100 0.0 SW 11 13 6 7 1007.8 1007.6 -
11/05:00am 27.6 32.9 27.6 100 0.0 SW 15 17 8 9 1007.5 1007.3 -
11/04:30am 27.6 33.3 27.6 100 0.0 SW 13 15 7 8 1007.4 1007.2 -
11/04:00am 27.7 33.1 27.7 100 0.0 SW 15 17 8 9 1007.1 1006.9 -
11/03:30am 27.7 32.7 27.7 100 0.0 WSW 17 17 9 9 1006.8 1006.6 -
11/03:00am 27.6 32.9 27.6 100 0.0 SW 15 15 8 8 1006.9 1006.7 -
11/02:30am 27.6 32.9 27.6 100 0.0 WSW 15 19 8 10 1006.9 1006.7 -
11/02:00am 27.6 32.9 27.6 100 0.0 WSW 15 22 8 12 1006.9 1006.7 -
11/01:30am 27.6 32.6 27.6 100 0.0 WSW 17 17 9 9 1007.0 1006.8 -
11/01:00am 27.6 32.9 27.6 100 0.0 WSW 15 17 8 9 1007.1 1006.9 -
11/12:30am 27.7 32.7 27.7 100 0.0 SW 17 17 9 9 1007.4 1007.2 -
11/12:00am 27.9 32.7 27.9 100 0.0 SW 19 19 10 10 1007.7 1007.5 -
 
Date/Time
WST
Temp
°C
App
Temp
°C
Dew
Point
Rel
Hum
%
Delta-T
°C
Wind Press
QNH
hPa
Press
MSL
hPa
Rain
since 9 am
mm
Dir
 
Spd
km/h
Gust
km/h
Spd
kts
Gust
kts
10/11:30pm 27.9 32.7 27.9 100 0.0 SW 19 20 10 11 1007.9 1007.7 -
10/11:00pm 28.2 33.0 28.2 100 0.0 SW 20 22 11 12 1008.2 1008.0 -
10/10:30pm 28.6 33.9 28.6 100 0.0 SW 19 22 10 12 1008.3 1008.1 -
10/10:00pm 28.7 33.1 28.2 97 0.4 SW 22 24 12 13 1008.2 1008.0 -
10/09:30pm 28.9 33.2 28.0 95 0.7 SW 22 26 12 14 1008.0 1007.8 -
10/09:00pm 29.2 34.7 28.9 98 0.2 SW 19 22 10 12 1008.0 1007.8 -
10/08:30pm 29.1 33.9 28.2 95 0.7 SW 20 24 11 13 1007.7 1007.5 -
10/08:00pm 29.1 33.9 28.2 95 0.7 SW 20 24 11 13 1007.6 1007.4 -
10/07:30pm 29.1 33.8 28.0 94 0.8 WSW 20 22 11 12 1007.4 1007.2 -
10/07:00pm 29.4 33.7 27.2 88 1.6 WSW 19 20 10 11 1007.0 1006.8 -
10/06:30pm 30.2 33.8 26.4 80 2.7 W 20 24 11 13 1006.8 1006.6 -
10/06:00pm 31.1 34.9 26.4 76 3.4 W 19 24 10 13 1006.5 1006.3 -
10/05:30pm 32.0 35.8 26.5 72 4.0 W 19 24 10 13 1006.4 1006.2 -
10/05:00pm 32.5 36.0 26.3 70 4.5 W 20 24 11 13 1006.2 1006.0 -

Other Formats:

Comma delimited format used in spreadsheet applications
http://www.bom.gov.au/fwo/IDW60801/IDW60801.94307.axf

JavaScript Object Notation format (JSON) in row-major order
http://www.bom.gov.au/fwo/IDW60801/IDW60801.94307.json